• Join FlightAware (Why Join?)
  • Login
  • US Flag 
05:51AM EDT


 

Airport Tracker/Info


-or-


 

Live Flight TrackerFlight Track Log ✈ EGF3796 ✈ 17-Apr-2014 ✈ KDAY - KLGA

Flight Track Log - Related Links

Times and Time Zones

All times are in EDT time to prevent confusion due to time zone crossing. See the EGF3796 flight status page for this flight to view local times or setup timezone preferences in your user account.

Time Position Orientation Groundspeed Altitude Reporting Facility
EDT Latitude Longitude Course Direction KTS MPH feet Rate Location/Type
06:28PM 39.8925 -84.2108 183° South 145 167 1,700  Level Indianapolis Center
06:29PM 39.8536 -84.2131 183° South 197 227 3,700 3,060 Climbing Indianapolis Center
06:30PM 39.8825 -84.2664 305° West 238 274 7,700 3,120 Climbing Indianapolis Center
06:31PM 39.9519 -84.2678 359° North 259 298 10,000 1,080 Climbing Indianapolis Center
06:32PM 40.0450 -84.2681 360° North 314 361 10,000 720 Level Indianapolis Center
06:33PM 40.1464 -84.2706 359° North 354 407 11,600 1,680 Climbing Indianapolis Center
06:34PM 40.2319 -84.1975 33° Northeast 391 450 13,600 1,980 Climbing Indianapolis Center
06:35PM 40.2867 -84.0750 60° Northeast 388 447 15,700 2,040 Climbing Indianapolis Center
06:36PM 40.3422 -83.9497 60° Northeast 390 449 17,800 1,800 Climbing Indianapolis Center
06:37PM 40.3967 -83.8231 61° Northeast 394 453 19,500 1,380 Climbing Indianapolis Center
06:38PM 40.4608 -83.6950 57° Northeast 412 474 20,700 1,200 Climbing Indianapolis Center
06:39PM 40.5522 -83.5419 52° Northeast 440 506 22,000 1,080 Climbing Indianapolis Center
06:40PM 40.6328 -83.4119 51° Northeast 452 520 23,100 1,020 Climbing Cleveland Center
06:41PM 40.7156 -83.2783 51° Northeast 467 537 24,200 960 Climbing Cleveland Center
06:42PM 40.7969 -83.1419 52° Northeast 469 540 25,200 1,260 Climbing Cleveland Center
06:43PM 40.8628 -82.9561 65° Northeast 474 545 26,900 1,500 Climbing Cleveland Center
06:44PM 40.8967 -82.7950 74° East 453 521 28,400 1,440 Climbing Cleveland Center
06:45PM 40.9089 -82.6308 84° East 452 520 29,900 1,200 Climbing Cleveland Center
06:46PM 40.9231 -82.4625 84° East 453 521 31,000 1,020 Climbing Cleveland Center
06:47PM 40.9389 -82.2892 83° East 467 537 32,100 1,080 Climbing Cleveland Center
06:48PM 40.9561 -82.0836 84° East 479 551 33,300 1,080 Climbing Cleveland Center
06:49PM 40.9706 -81.9042 84° East 486 559 34,400 1,020 Climbing Cleveland Center
06:50PM 40.9847 -81.7250 84° East 488 562 35,500 960 Climbing Cleveland Center
06:51PM 40.9997 -81.5458 84° East 491 565 36,500 720 Climbing Cleveland Center
06:52PM 41.0131 -81.3669 84° East 490 564 37,000 240 Climbing Cleveland Center
06:53PM 41.0258 -81.1897 84° East 488 562 37,000  Level Cleveland Center
06:54PM 41.0408 -80.9833 84° East 485 558 37,000  Level Cleveland Center
06:55PM 41.0531 -80.8058 85° East 481 554 37,000  Level Cleveland Center
06:57PM 41.0669 -80.6289 84° East 481 554 37,000  Level Cleveland Center
06:58PM 41.0792 -80.4517 85° East 481 554 37,000  Level Cleveland Center
06:59PM 41.0906 -80.2750 85° East 480 552 37,000  Level Cleveland Center
07:00PM 41.1031 -80.0967 85° East 481 554 37,000  Level Cleveland Center
07:01PM 41.1175 -79.8839 85° East 481 554 37,000  Level Cleveland Center
07:02PM 41.1267 -79.7219 86° East 481 554 37,000  Level Cleveland Center
07:03PM 41.1397 -79.5317 85° East 480 552 37,000  Level Cleveland Center
07:04PM 41.1506 -79.3550 85° East 480 552 37,000  Level Cleveland Center
07:05PM 41.1606 -79.1636 86° East 476 548 37,000  Level Cleveland Center
07:06PM 41.1711 -78.9894 85° East 476 548 37,000  Level Cleveland Center
07:07PM 41.1808 -78.7967 86° East 474 545 37,000 -420 Level Cleveland Center
07:08PM 41.1908 -78.6278 85° East 464 534 36,200 -1,020 Descending Cleveland Center
07:09PM 41.1997 -78.4547 86° East 468 539 34,900 -1,260 Descending Cleveland Center
07:10PM 41.2081 -78.2806 86° East 471 542 33,600 -960 Descending Cleveland Center
07:11PM 41.2069 -78.0856 90° East 469 540 33,000 -300 Descending Cleveland Center
07:12PM 41.1869 -77.9178 99° East 464 534 33,000  Level Cleveland Center
07:13PM 41.1656 -77.7517 100° East 460 529 33,000  Level Cleveland Center
07:14PM 41.1453 -77.5836 99° East 460 529 33,000  Level Cleveland Center
07:15PM 41.1222 -77.4117 100° East 473 544 33,000 -1,140 Level Cleveland Center
07:16PM 41.0956 -77.2047 100° East 476 548 30,700 -2,340 Descending Cleveland Center
07:17PM 41.0736 -77.0386 100° East 464 534 28,200 -2,400 Descending Cleveland Center
07:18PM 41.0511 -76.8733 100° East 463 533 25,800 -2,400 Descending Cleveland Center
07:19PM 41.0286 -76.7047 100° East 464 534 23,300 -2,220 Descending Cleveland Center
07:20PM 40.9961 -76.5444 105° East 456 525 21,300 -1,980 Descending Cleveland Center
07:22PM 40.9483 -76.3564 109° East 449 517 18,900 -1,740 Descending New York Center
07:23PM 40.9100 -76.1939 107° East 421 484 17,600 -1,620 Descending New York Center
07:24PM 40.8728 -76.0536 109° East 415 478 15,700 -1,800 Descending New York Center
07:25PM 40.8411 -75.9169 107° East 405 466 14,000 -1,440 Descending New York Center
07:26PM 40.8094 -75.7828 107° East 389 448 12,900 -600 Descending New York Center
07:27PM 40.7769 -75.6625 110° East 383 441 12,900  Level New York Center
07:28PM 40.7308 -75.5197 113° Southeast 383 441 12,900  Level New York Center
07:29PM 40.6900 -75.3908 113° Southeast 383 441 12,900 -720 Level New York Center
07:30PM 40.6492 -75.2594 112° Southeast 383 441 11,500 -1,440 Descending New York Center
07:31PM 40.6136 -75.1506 113° Southeast 373 429 10,100 -840 Descending New York Center
07:32PM 40.5725 -75.0250 113° Southeast 341 392 9,900 -120 Descending New York Center
07:33PM 40.5389 -74.9111 111° Southeast 336 387 9,900  Level New York Center
07:34PM 40.5056 -74.7944 111° Southeast 336 387 10,000  Climbing New York Center
07:35PM 40.4714 -74.6942 114° Southeast 341 392 10,000  Level New York Center
07:35PM 40.4500 -74.6167 110° East 335 386 10,000  Level New York TRACON
07:36PM 40.4333 -74.5000 101° East 344 396 10,000  Level New York TRACON
07:37PM 40.4667 -74.3833 69° East 340 391 10,000 -240 Level New York TRACON
07:38PM 40.5000 -74.2833 66° East 292 336 9,600 -1,140 Descending New York TRACON
07:39PM 40.5167 -74.1833 78° East 271 312 7,800 -1,920 Descending New York TRACON
07:40PM 40.5500 -74.1167 57° Northeast 268 308 6,000 -1,680 Descending New York TRACON
07:41PM 40.6167 -74.0500 37° Northeast 248 285 4,500 -960 Descending New York TRACON
07:42PM 40.6833 -74.0333 11° North 235 270 4,000 -300 Descending New York TRACON
07:43PM 40.7500 -74.0167 11° North 245 282 4,000  Level New York TRACON
07:44PM 40.8000 -73.9833 27° Northeast 231 266 4,000 -420 Level New York TRACON
07:45PM 40.8500 -73.9333 37° Northeast 227 261 3,200 -840 Descending New York TRACON
07:46PM 40.8833 -73.8500 62° Northeast 235 270 2,400 -900 Descending New York TRACON
07:47PM 40.8333 -73.8333 166° South 149 171 1,400 -900 Descending New York TRACON
07:48PM 40.8000 -73.8500 201° Southwest 122 140 600 -840 Descending New York TRACON
07:50PM 40.7667 -73.8667 186° South  Level FlightAware Approximate
07:57PM 40.7772 -73.8726 186° South  Level Estimated
07:58PM 40.7772 -73.8726 North  Level Estimated